This is the latest recevied weather packets stored in our database for station/object WX2P-13. If no packets are shown the sender has not sent any weather packets the latest 10 day(s).
| Time | Temp. | Humidity | Pressure | Rain* | Wind** | Luminosity | Snow |
|---|---|---|---|---|---|---|---|
| 1778032443 | 21.67° C | 88% | 1016.4 hPa | 0 mm | - | 0 W/m² | - |
| 1778032139 | 21.67° C | 87% | 1016.3 hPa | 0 mm | - | 0 W/m² | - |
| 1778031836 | 21.67° C | 87% | 1016.3 hPa | 0 mm | - | 0 W/m² | - |
| 1778031532 | 21.67° C | 87% | 1015.8 hPa | 0 mm | - | 0 W/m² | - |
| 1778031231 | 21.11° C | 88% | 1016.2 hPa | 0 mm | - | 0 W/m² | - |
| 1778030321 | 21.67° C | 86% | 1015.8 hPa | 0 mm | - | 0 W/m² | - |
| 1778027592 | 22.78° C | 81% | 1015.8 hPa | 0 mm | - | 0 W/m² | - |
| 1778026681 | 23.89° C | 79% | 1015.3 hPa | 0 mm | - | 0 W/m² | - |
| 1778024864 | 25° C | 75% | 1015.1 hPa | 0 mm | - | 11 W/m² | - |
| 1778024258 | 25.56° C | 74% | 1015.1 hPa | 0 mm | - | 18 W/m² | - |
| 1778023653 | 25.56° C | 73% | 1015 hPa | 0 mm | - | 28 W/m² | - |
| 1778023047 | 25.56° C | 71% | 1014.9 hPa | 0 mm | - | 32 W/m² | - |
| 1778021229 | 26.67° C | 68% | 1015.1 hPa | 0 mm | - | 72 W/m² | - |
| 1778020927 | 26.67° C | 67% | 1015.2 hPa | 0 mm | - | 79 W/m² | - |
| 1778020320 | 26.67° C | 66% | 1015 hPa | 0 mm | - | 86 W/m² | - |
| 1778020016 | 27.22° C | 66% | 1015.2 hPa | 0 mm | - | 86 W/m² | - |
| 1778019410 | 27.78° C | 65% | 1015.1 hPa | 0 mm | - | 85 W/m² | - |
| 1778016989 | 28.89° C | 60% | 1015 hPa | 0 mm | - | 83 W/m² | - |
| 1778016685 | 28.33° C | 60% | 1014.9 hPa | 0 mm | - | 118 W/m² | - |
| 1778016381 | 28.33° C | 59% | 1015.1 hPa | 0 mm | - | 91 W/m² | - |
| 1778015776 | 28.89° C | 59% | 1015.2 hPa | 0 mm | - | 156 W/m² | - |
| 1778014866 | 29.44° C | 57% | 1014.8 hPa | 0 mm | - | 79 W/m² | - |
| 1778014262 | 28.89° C | 57% | 1014.8 hPa | 0 mm | - | 78 W/m² | - |
| 1778013050 | 29.44° C | 57% | 1015.1 hPa | 0 mm | - | 281 W/m² | - |
| 1778010927 | 28.89° C | 59% | 1015.2 hPa | 0 mm | - | 152 W/m² | - |
* Rain latest hour (hover to see other rain measurements)
** Current wind speed in m/s (hover to see current wind gust speed)